Aviation Digital Data Service (ADDS)

Output produced by METARs form (2122 UTC 21 September 2021)
found at http://aviationweather.gov/metar/data/
 
METAR text: KMTJ 212053Z AUTO 10SM CLR 19/M04 A3047 RMK AO2 SLP271 T01941044 58019
Conditions at: KMTJ (MONTROSE , CO, US) observed 2053 UTC 21 September 2021
Temperature: 19.4°C (67°F)
Dewpoint: -4.4°C (24°F) [RH = 20%]
Pressure (altimeter): 30.47 inches Hg (1031.9 mb)
[Sea-level pressure: 1027.1 mb]
Winds: missing
Visibility: 10 or more miles (16+ km)
Ceiling: at least 12,000 feet AGL
Clouds: sky clear below 12,000 feet AGL
Weather: automated observation with no human augmentation;
there may or may not be significant weather present at this time

Forecast for: KMTJ (MONTROSE , CO, US)
Text: KMTJ 211725Z 2118/2218 33008KT P6SM FEW250
Forecast period: 1800 UTC 21 September 2021 to 0200 UTC 22 September 2021
Forecast type: FROM: standard forecast or significant change
Winds: from the NNW (330 degrees) at 9 MPH (8 knots; 4.1 m/s)
Visibility: 6 or more miles (10+ km)
Ceiling: at least 12,000 feet AGL
Clouds: few clouds at 25000 feet AGL
Weather: no significant weather forecast for this period
Text: FM220200 14007KT P6SM SKC
Forecast period: 0200 to 1800 UTC 22 September 2021
Forecast type: FROM: standard forecast or significant change
Winds: from the SE (140 degrees) at 8 MPH (7 knots; 3.6 m/s)
Visibility: 6 or more miles (10+ km)
Clouds: clear skies
Weather: no significant weather forecast for this period